Time;durP1;ratioP1;P1;durP2;ratioP2;P2;SDS_P1;SDS_P2;PMS_P1;PMS_P2;Temp;Humidity;BMP_temperature;BMP_pressure;BME280_temperature;BME280_humidity;BME280_pressure;Samples;Min_cycle;Max_cycle;Signal;HPM_P1;HPM_P2
2022/02/23 00:04:40;;;;;;;3.97;0.95;;;;;;;;;;10205014;29;20046;-78
2022/02/23 00:09:43;;;;;;;3.08;1.35;;;;;;;;;;10201730;28;20190;-76
2022/02/23 00:14:46;;;;;;;6.07;1.40;;;;;;;;;;10185210;29;20052;-76
2022/02/23 00:19:50;;;;;;;3.67;1.23;;;;;;;;;;10200505;29;20047;-75
2022/02/23 00:24:53;;;;;;;;;;;;;;;;;;10203201;29;20052;-77
2022/02/23 00:29:56;;;;;;;5.88;1.20;;;;;;;;;;10205805;29;19927;-78
2022/02/23 00:35:00;;;;;;;0.70;0.57;;;;;;;;;;10194349;29;20493;-78
2022/02/23 00:40:03;;;;;;;;;;;;;;;;;;10218323;29;20048;-78
2022/02/23 00:45:06;;;;;;;3.73;1.00;;;;;;;;;;10191714;29;20343;-77
2022/02/23 00:50:10;;;;;;;3.13;0.70;;;;;;;;;;10196391;29;20039;-76
2022/02/23 00:55:13;;;;;;;4.43;1.17;;;;;;;;;;10203307;29;20527;-77
2022/02/23 01:00:16;;;;;;;5.35;1.33;;;;;;;;;;10200186;28;20051;-77
2022/02/23 01:05:20;;;;;;;1.63;0.83;;;;;;;;;;10198976;28;20134;-75
2022/02/23 01:10:24;;;;;;;1.17;0.60;;;;;;;;;;10198977;29;20031;-76
2022/02/23 01:15:27;;;;;;;1.73;0.70;;;;;;;;;;10205869;28;20091;-77
2022/02/23 01:20:34;;;;;;;3.42;0.90;;;;;;;;;;10184506;29;20043;-75
2022/02/23 01:25:37;;;;;;;2.50;1.13;;;;;;;;;;10186138;29;20118;-76
2022/02/23 01:30:40;;;;;;;3.47;1.20;;;;;;;;;;10231039;29;20047;-77
2022/02/23 01:35:45;;;;;;;2.25;0.70;;;;;;;;;;10210708;29;20051;-77
2022/02/23 01:40:48;;;;;;;4.38;1.02;;;;;;;;;;10187138;29;20063;-75
2022/02/23 01:45:51;;;;;;;2.33;0.60;;;;;;;;;;10200243;29;20087;-76
2022/02/23 01:50:55;;;;;;;1.00;0.43;;;;;;;;;;10195378;29;20043;-77
2022/02/23 01:55:59;;;;;;;0.33;0.30;;;;;;;;;;10194423;29;20071;-76
2022/02/23 02:01:02;;;;;;;2.90;0.77;;;;;;;;;;10195523;29;20075;-76
2022/02/23 02:06:10;;;;;;;1.80;0.90;;;;;;;;;;10196679;29;20463;-77
2022/02/23 02:11:12;;;;;;;2.08;1.05;;;;;;;;;;10191282;29;20075;-76
2022/02/23 02:16:16;;;;;;;0.67;0.20;;;;;;;;;;10195191;29;20072;-75
2022/02/23 02:21:21;;;;;;;3.00;0.90;;;;;;;;;;10195315;29;20032;-76
2022/02/23 02:26:27;;;;;;;0.52;0.30;;;;;;;;;;10192734;29;20047;-76
2022/02/23 02:31:31;;;;;;;4.20;0.77;;;;;;;;;;10200036;29;20365;-76
2022/02/23 02:36:34;;;;;;;4.65;1.20;;;;;;;;;;10195889;29;20039;-75
2022/02/23 02:41:39;;;;;;;4.05;0.80;;;;;;;;;;10197296;29;20043;-74
2022/02/23 02:46:44;;;;;;;0.83;0.47;;;;;;;;;;10199076;29;20058;-77
2022/02/23 02:51:48;;;;;;;1.80;0.83;;;;;;;;;;10194616;29;20040;-76
2022/02/23 02:56:52;;;;;;;2.17;0.55;;;;;;;;;;10191120;29;20055;-74
2022/02/23 03:01:56;;;;;;;0.70;0.40;;;;;;;;;;10198092;29;20067;-76
2022/02/23 03:07:01;;;;;;;1.77;0.70;;;;;;;;;;10201357;29;20142;-75
2022/02/23 03:12:06;;;;;;;1.85;0.80;;;;;;;;;;10220887;29;20038;-77
2022/02/23 03:17:09;;;;;;;4.70;0.50;;;;;;;;;;10204915;29;20126;-75
2022/02/23 03:22:12;;;;;;;0.43;0.10;;;;;;;;;;10200213;29;20095;-77
2022/02/23 03:27:16;;;;;;;2.45;0.73;;;;;;;;;;10228306;29;20069;-75
2022/02/23 03:32:19;;;;;;;1.83;0.47;;;;;;;;;;10208244;29;20090;-73
2022/02/23 03:37:22;;;;;;;4.77;0.93;;;;;;;;;;10205315;29;20043;-76
2022/02/23 03:42:26;;;;;;;0.60;0.40;;;;;;;;;;10202573;29;20083;-76
2022/02/23 03:47:28;;;;;;;;;;;;;;;;;;10184782;29;20040;-75
2022/02/23 03:52:31;;;;;;;0.30;0.30;;;;;;;;;;10198610;29;19923;-75
2022/02/23 03:57:36;;;;;;;1.07;0.30;;;;;;;;;;10204577;29;20424;-76
2022/02/23 04:02:40;;;;;;;0.73;0.52;;;;;;;;;;10200767;29;20122;-76
2022/02/23 04:07:42;;;;;;;2.10;0.43;;;;;;;;;;10193419;29;20040;-77
2022/02/23 04:12:47;;;;;;;0.30;0.23;;;;;;;;;;10205562;29;20047;-77
2022/02/23 04:17:49;;;;;;;1.53;0.30;;;;;;;;;;10189556;29;20097;-76
2022/02/23 04:22:52;;;;;;;2.03;0.30;;;;;;;;;;10201369;29;20042;-76
2022/02/23 04:27:57;;;;;;;0.88;0.22;;;;;;;;;;10217996;29;20043;-77
2022/02/23 04:33:01;;;;;;;0.13;0.13;;;;;;;;;;10198060;29;20035;-74
2022/02/23 04:38:04;;;;;;;0.43;0.10;;;;;;;;;;10185438;29;20043;-75
2022/02/23 04:43:09;;;;;;;0.40;0.40;;;;;;;;;;10221099;29;20399;-76
2022/02/23 04:48:13;;;;;;;0.07;0.07;;;;;;;;;;10213086;29;20511;-75
2022/02/23 04:53:16;;;;;;;0.20;0.10;;;;;;;;;;10196761;29;20047;-77
2022/02/23 04:58:21;;;;;;;2.40;0.40;;;;;;;;;;10213555;29;20048;-75
2022/02/23 05:03:26;;;;;;;0.00;0.00;;;;;;;;;;10218341;29;20115;-77
2022/02/23 05:08:30;;;;;;;0.00;0.00;;;;;;;;;;10202426;29;20035;-76
2022/02/23 05:13:37;;;;;;;0.97;0.30;;;;;;;;;;10199977;29;20032;-76
2022/02/23 05:18:40;;;;;;;4.07;0.40;;;;;;;;;;10212096;29;20048;-76
2022/02/23 05:23:43;;;;;;;1.03;0.37;;;;;;;;;;10212128;29;20044;-76
2022/02/23 05:28:48;;;;;;;1.73;0.52;;;;;;;;;;10194791;29;20047;-76
2022/02/23 05:33:51;;;;;;;0.87;0.10;;;;;;;;;;10213822;29;20043;-78
2022/02/23 05:38:55;;;;;;;1.67;0.60;;;;;;;;;;10217684;29;20058;-76
2022/02/23 05:43:59;;;;;;;2.10;0.20;;;;;;;;;;10199449;29;20043;-77
2022/02/23 05:49:02;;;;;;;1.50;0.60;;;;;;;;;;10220180;29;20044;-77
2022/02/23 05:54:07;;;;;;;1.13;0.32;;;;;;;;;;10190778;29;20032;-77
2022/02/23 05:59:12;;;;;;;0.40;0.40;;;;;;;;;;10206590;29;20044;-76
2022/02/23 06:04:15;;;;;;;0.60;0.23;;;;;;;;;;10208643;29;20042;-78
2022/02/23 06:09:18;;;;;;;0.30;0.00;;;;;;;;;;10223418;29;20123;-78
2022/02/23 06:14:22;;;;;;;2.70;0.57;;;;;;;;;;10238443;29;20059;-77
2022/02/23 06:19:25;;;;;;;4.50;0.80;;;;;;;;;;10224195;29;20106;-76
2022/02/23 06:24:28;;;;;;;1.90;0.37;;;;;;;;;;10224269;29;20641;-78
2022/02/23 06:29:32;;;;;;;1.70;0.23;;;;;;;;;;10229790;29;20095;-78
2022/02/23 06:34:37;;;;;;;0.30;0.27;;;;;;;;;;10229034;29;20679;-77
2022/02/23 06:39:42;;;;;;;0.47;0.47;;;;;;;;;;10231184;29;20120;-77
2022/02/23 06:44:47;;;;;;;0.90;0.30;;;;;;;;;;10211902;29;20059;-76
2022/02/23 06:49:49;;;;;;;;;;;;;;;;;;10216584;29;20098;-78
2022/02/23 06:54:52;;;;;;;2.13;0.70;;;;;;;;;;10217407;29;19965;-77
2022/02/23 06:59:56;;;;;;;1.70;0.55;;;;;;;;;;10209314;29;20114;-76
2022/02/23 07:04:59;;;;;;;1.83;0.90;;;;;;;;;;10206544;29;20107;-77
2022/02/23 07:10:02;;;;;;;4.05;0.73;;;;;;;;;;10212966;29;20075;-77
2022/02/23 07:15:09;;;;;;;1.13;0.60;;;;;;;;;;10225551;29;20051;-76
2022/02/23 07:20:13;;;;;;;4.18;0.98;;;;;;;;;;10214027;29;20051;-77
2022/02/23 07:25:16;;;;;;;5.55;1.13;;;;;;;;;;10223221;29;20084;-76
2022/02/23 07:30:20;;;;;;;3.17;0.90;;;;;;;;;;10198449;29;20678;-78
2022/02/23 07:35:27;;;;;;;4.50;1.20;;;;;;;;;;10218671;29;20047;-75
2022/02/23 07:40:37;;;;;;;3.00;0.90;;;;;;;;;;10230733;29;20079;-74
2022/02/23 07:46:01;;;;;;;4.07;1.03;;;;;;;;;;10227018;29;20040;-75
2022/02/23 07:51:04;;;;;;;4.75;1.23;;;;;;;;;;10229850;29;20039;-75
2022/02/23 07:56:08;;;;;;;3.35;1.08;;;;;;;;;;10226207;29;20051;-75
2022/02/23 08:01:27;;;;;;;1.75;0.70;;;;;;;;;;10235791;29;20055;-74
2022/02/23 08:06:31;;;;;;;2.00;1.10;;;;;;;;;;10237968;29;20131;-74
2022/02/23 08:11:36;;;;;;;3.08;1.23;;;;;;;;;;10234027;29;20122;-74
2022/02/23 08:22:03;;;;;;;3.33;1.08;;;;;;;;;;10254210;28;20092;-74
2022/02/23 08:27:07;;;;;;;4.13;0.95;;;;;;;;;;10228095;28;20066;-74
2022/02/23 08:32:12;;;;;;;2.47;1.20;;;;;;;;;;10207717;29;20043;-76
2022/02/23 08:37:17;;;;;;;7.80;1.35;;;;;;;;;;10199014;29;20044;-76
2022/02/23 08:42:20;;;;;;;3.67;1.25;;;;;;;;;;10206725;29;20511;-74
2022/02/23 08:47:25;;;;;;;3.60;0.80;;;;;;;;;;10207260;29;20134;-76
2022/02/23 08:52:30;;;;;;;4.30;1.00;;;;;;;;;;10199388;29;20048;-76
2022/02/23 08:57:33;;;;;;;4.97;1.88;;;;;;;;;;10183767;29;20047;-75
2022/02/23 09:02:36;;;;;;;3.25;1.20;;;;;;;;;;10183533;29;20095;-75
2022/02/23 09:07:38;;;;;;;;;;;;;;;;;;10182471;29;20408;-77
2022/02/23 09:12:44;;;;;;;2.75;1.05;;;;;;;;;;10194554;29;19926;-80
2022/02/23 09:17:47;;;;;;;3.63;1.00;;;;;;;;;;10184867;29;20098;-78
2022/02/23 09:22:51;;;;;;;3.35;0.60;;;;;;;;;;10182567;29;20115;-77
2022/02/23 09:27:55;;;;;;;8.55;2.28;;;;;;;;;;10202464;29;20058;-77
2022/02/23 09:32:59;;;;;;;3.90;1.00;;;;;;;;;;10199270;29;20157;-77
2022/02/23 09:38:01;;;;;;;5.45;1.33;;;;;;;;;;10186830;29;20050;-77
2022/02/23 09:43:06;;;;;;;5.03;1.50;;;;;;;;;;10210054;29;20109;-78
2022/02/23 09:48:10;;;;;;;9.05;1.30;;;;;;;;;;10206364;29;20077;-77
2022/02/23 09:53:15;;;;;;;2.78;0.90;;;;;;;;;;10200027;29;20055;-77
2022/02/23 09:58:24;;;;;;;5.60;1.35;;;;;;;;;;10203329;29;20135;-78
2022/02/23 10:03:28;;;;;;;5.25;1.02;;;;;;;;;;10219763;29;20036;-78
2022/02/23 10:08:33;;;;;;;2.67;0.98;;;;;;;;;;10230533;29;20077;-77
2022/02/23 10:13:48;;;;;;;4.70;1.40;;;;;;;;;;10227387;29;20027;-76
2022/02/23 10:19:04;;;;;;;2.63;1.38;;;;;;;;;;10228798;29;20075;-77
2022/02/23 10:24:21;;;;;;;6.50;1.60;;;;;;;;;;10197975;29;20046;-76
2022/02/23 10:29:29;;;;;;;4.32;1.52;;;;;;;;;;10208518;29;20146;-77
2022/02/23 10:34:36;;;;;;;4.32;1.67;;;;;;;;;;10210336;29;20043;-76
2022/02/23 10:39:48;;;;;;;5.40;1.63;;;;;;;;;;10208304;29;20063;-76
2022/02/23 10:44:56;;;;;;;5.80;1.90;;;;;;;;;;10212972;29;20036;-76
2022/02/23 10:50:01;;;;;;;6.38;1.42;;;;;;;;;;10214239;29;20098;-76
2022/02/23 10:55:13;;;;;;;10.05;2.13;;;;;;;;;;10213329;29;20036;-76
2022/02/23 11:00:19;;;;;;;7.93;2.00;;;;;;;;;;10209655;29;20044;-76
2022/02/23 11:05:24;;;;;;;6.85;2.25;;;;;;;;;;10213382;29;20043;-76
2022/02/23 11:10:27;;;;;;;8.68;2.20;;;;;;;;;;10220116;29;20131;-76
2022/02/23 11:15:32;;;;;;;8.63;2.00;;;;;;;;;;10201318;29;20127;-75
2022/02/23 11:20:35;;;;;;;17.52;3.10;;;;;;;;;;10199240;29;20048;-76
2022/02/23 11:25:39;;;;;;;18.25;2.70;;;;;;;;;;10213480;29;20518;-75
2022/02/23 11:30:44;;;;;;;6.75;1.80;;;;;;;;;;10189935;29;20036;-76
2022/02/23 11:35:49;;;;;;;6.35;2.35;;;;;;;;;;10181475;29;20055;-77
2022/02/23 11:40:54;;;;;;;5.63;2.03;;;;;;;;;;10191999;29;20516;-79
2022/02/23 11:46:00;;;;;;;3.03;1.30;;;;;;;;;;10199847;29;20122;-76
2022/02/23 11:51:04;;;;;;;12.52;2.55;;;;;;;;;;10182274;29;20044;-77
2022/02/23 11:56:10;;;;;;;2.03;1.30;;;;;;;;;;10201715;29;20039;-77
2022/02/23 12:01:16;;;;;;;7.88;1.80;;;;;;;;;;10198691;29;20044;-76
2022/02/23 12:06:21;;;;;;;2.38;1.30;;;;;;;;;;10181909;29;20416;-77
2022/02/23 12:11:41;;;;;;;7.50;2.15;;;;;;;;;;10202972;29;20043;-76
2022/02/23 12:16:51;;;;;;;5.63;1.92;;;;;;;;;;10202443;29;20131;-78
2022/02/23 12:21:55;;;;;;;3.60;1.30;;;;;;;;;;10210773;29;20612;-77
2022/02/23 12:26:59;;;;;;;4.10;2.20;;;;;;;;;;10214373;29;20054;-77
2022/02/23 12:32:05;;;;;;;5.22;2.25;;;;;;;;;;10210560;29;20048;-75
2022/02/23 12:37:08;;;;;;;3.40;1.40;;;;;;;;;;10209724;29;20044;-77
2022/02/23 12:42:15;;;;;;;3.15;1.50;;;;;;;;;;10216892;29;20082;-75
2022/02/23 12:47:20;;;;;;;3.00;1.50;;;;;;;;;;10253950;28;20061;-75
2022/02/23 12:52:24;;;;;;;5.97;1.50;;;;;;;;;;10225402;28;20048;-77
2022/02/23 12:57:26;;;;;;;3.13;1.05;;;;;;;;;;10214110;29;20039;-76
2022/02/23 13:02:31;;;;;;;2.17;1.00;;;;;;;;;;10217752;29;20445;-77
2022/02/23 13:07:38;;;;;;;5.80;1.30;;;;;;;;;;10233132;29;20044;-77
2022/02/23 13:12:44;;;;;;;4.25;1.63;;;;;;;;;;10208500;29;20372;-78
2022/02/23 13:17:52;;;;;;;4.65;1.42;;;;;;;;;;10205125;29;20131;-76
2022/02/23 13:23:01;;;;;;;3.00;1.00;;;;;;;;;;10222262;29;20047;-76
2022/02/23 13:28:07;;;;;;;3.22;1.17;;;;;;;;;;10225911;29;20074;-78
2022/02/23 13:33:12;;;;;;;4.60;1.30;;;;;;;;;;10217406;29;21339;-77
2022/02/23 13:38:16;;;;;;;2.83;1.30;;;;;;;;;;10220753;29;20116;-77
2022/02/23 13:43:29;;;;;;;6.88;2.55;;;;;;;;;;10216244;29;20044;-77
2022/02/23 13:48:34;;;;;;;3.45;1.55;;;;;;;;;;10215853;29;20119;-76
2022/02/23 13:53:49;;;;;;;3.38;1.25;;;;;;;;;;10203710;29;20040;-78
2022/02/23 13:59:01;;;;;;;3.38;1.10;;;;;;;;;;10203920;29;20039;-75
2022/02/23 14:04:10;;;;;;;1.98;1.17;;;;;;;;;;10195387;29;20075;-76
2022/02/23 14:09:13;;;;;;;4.22;1.35;;;;;;;;;;10194293;29;20048;-76
2022/02/23 14:14:18;;;;;;;3.90;1.10;;;;;;;;;;10204541;29;20384;-75
2022/02/23 14:19:23;;;;;;;2.55;1.02;;;;;;;;;;10208488;29;20149;-75
2022/02/23 14:24:29;;;;;;;5.47;1.50;;;;;;;;;;10185828;29;20135;-76
2022/02/23 14:29:33;;;;;;;3.72;1.20;;;;;;;;;;10184348;29;20550;-76
2022/02/23 14:34:38;;;;;;;6.78;2.22;;;;;;;;;;10197661;29;20044;-74
2022/02/23 14:39:41;;;;;;;3.92;1.67;;;;;;;;;;10207489;29;20047;-76
2022/02/23 14:44:44;;;;;;;4.25;1.30;;;;;;;;;;10202190;29;20435;-76
2022/02/23 14:49:49;;;;;;;9.60;3.60;;;;;;;;;;10194624;29;20575;-75
2022/02/23 14:54:52;;;;;;;1.95;0.93;;;;;;;;;;10198678;29;20059;-75
2022/02/23 14:59:57;;;;;;;3.42;1.08;;;;;;;;;;10173735;29;20103;-76
2022/02/23 15:05:01;;;;;;;4.40;1.20;;;;;;;;;;10180546;29;20044;-75
2022/02/23 15:10:06;;;;;;;3.80;1.20;;;;;;;;;;10199906;29;20042;-76
2022/02/23 15:15:09;;;;;;;3.85;1.20;;;;;;;;;;10195915;29;20126;-76
2022/02/23 15:20:14;;;;;;;3.20;1.30;;;;;;;;;;10185351;29;20119;-75
2022/02/23 15:25:17;;;;;;;3.08;1.13;;;;;;;;;;10201399;29;20151;-76
2022/02/23 15:30:20;;;;;;;3.95;0.90;;;;;;;;;;10197698;29;20448;-75
2022/02/23 15:35:25;;;;;;;3.45;0.90;;;;;;;;;;10204201;29;20471;-76
2022/02/23 15:40:28;;;;;;;5.65;1.80;;;;;;;;;;10179557;29;20130;-76
2022/02/23 15:45:31;;;;;;;2.37;1.10;;;;;;;;;;10186279;29;20114;-75
2022/02/23 15:50:40;;;;;;;1.90;1.15;;;;;;;;;;10203215;29;20047;-76
2022/02/23 15:55:44;;;;;;;2.85;1.25;;;;;;;;;;10200144;29;20039;-78
2022/02/23 16:00:47;;;;;;;4.00;0.90;;;;;;;;;;10183416;29;20071;-76
2022/02/23 16:05:52;;;;;;;1.37;0.90;;;;;;;;;;10177598;29;20139;-75
2022/02/23 16:10:56;;;;;;;3.30;0.70;;;;;;;;;;10188161;29;20300;-75
2022/02/23 16:15:58;;;;;;;9.50;1.10;;;;;;;;;;10203746;29;20051;-76
2022/02/23 16:21:03;;;;;;;3.93;1.30;;;;;;;;;;10198194;29;20048;-76
2022/02/23 16:26:06;;;;;;;3.17;1.20;;;;;;;;;;10206434;29;20036;-73
2022/02/23 16:31:09;;;;;;;;;;;;;;;;;;10194075;29;20054;-76
2022/02/23 16:36:14;;;;;;;3.55;1.02;;;;;;;;;;10218177;29;19922;-76
2022/02/23 16:41:17;;;;;;;4.97;1.08;;;;;;;;;;10206815;29;20122;-76
2022/02/23 16:46:21;;;;;;;3.90;1.50;;;;;;;;;;10181132;29;20389;-76
2022/02/23 16:51:25;;;;;;;2.73;1.17;;;;;;;;;;10206840;29;20048;-76
2022/02/23 16:56:29;;;;;;;2.78;1.10;;;;;;;;;;10209058;29;20110;-76
2022/02/23 17:01:32;;;;;;;3.95;1.60;;;;;;;;;;10209714;29;20061;-76
2022/02/23 17:06:43;;;;;;;4.13;1.35;;;;;;;;;;10209546;29;20464;-76
2022/02/23 17:11:45;;;;;;;6.15;1.33;;;;;;;;;;10182082;29;20051;-76
2022/02/23 17:16:48;;;;;;;5.45;1.70;;;;;;;;;;10234710;28;20047;-74
2022/02/23 17:21:53;;;;;;;4.65;1.73;;;;;;;;;;10222061;28;20527;-75
2022/02/23 17:26:56;;;;;;;7.13;2.20;;;;;;;;;;10199602;29;20044;-76
2022/02/23 17:32:00;;;;;;;3.78;1.58;;;;;;;;;;10210144;29;20071;-76
2022/02/23 17:37:04;;;;;;;8.30;1.53;;;;;;;;;;10222970;29;20032;-77
2022/02/23 17:42:07;;;;;;;6.53;1.52;;;;;;;;;;10206153;29;20110;-75
2022/02/23 17:47:10;;;;;;;4.28;1.35;;;;;;;;;;10220547;29;20027;-76
2022/02/23 17:52:26;;;;;;;4.28;1.40;;;;;;;;;;10207459;29;20053;-75
2022/02/23 17:57:29;;;;;;;5.07;1.60;;;;;;;;;;10190664;29;20055;-76
2022/02/23 18:02:33;;;;;;;6.25;1.25;;;;;;;;;;10212256;29;20040;-75
2022/02/23 18:07:57;;;;;;;8.57;1.63;;;;;;;;;;10197694;29;20060;-77
2022/02/23 18:13:00;;;;;;;6.60;1.85;;;;;;;;;;10206647;29;20115;-77
2022/02/23 18:18:03;;;;;;;6.07;1.58;;;;;;;;;;10214923;29;20040;-75
2022/02/23 18:23:09;;;;;;;3.08;1.48;;;;;;;;;;10186609;29;20058;-77
2022/02/23 18:28:13;;;;;;;8.73;1.80;;;;;;;;;;10213758;29;20050;-78
2022/02/23 18:33:16;;;;;;;5.18;2.13;;;;;;;;;;10203439;29;20080;-78
2022/02/23 18:38:20;;;;;;;6.90;2.10;;;;;;;;;;10217935;29;20179;-74
2022/02/23 18:43:25;;;;;;;3.47;1.60;;;;;;;;;;10203478;29;20051;-76
2022/02/23 18:48:33;;;;;;;7.45;2.10;;;;;;;;;;10216066;29;20067;-78
2022/02/23 18:53:38;;;;;;;6.30;2.23;;;;;;;;;;10223439;29;20040;-81
2022/02/23 18:58:41;;;;;;;5.97;2.50;;;;;;;;;;10237130;29;20044;-78
2022/02/23 19:03:45;;;;;;;;;;;;;;;;;;10221064;29;20516;-80
2022/02/23 19:08:50;;;;;;;8.07;2.20;;;;;;;;;;10241193;29;19930;-79
2022/02/23 19:13:55;;;;;;;10.02;3.45;;;;;;;;;;10235813;29;20047;-79
2022/02/23 19:18:59;;;;;;;7.40;2.83;;;;;;;;;;10234219;29;20032;-80
2022/02/23 19:24:08;;;;;;;6.82;2.03;;;;;;;;;;10217470;29;20107;-79
2022/02/23 19:29:10;;;;;;;6.23;1.90;;;;;;;;;;10213819;29;20036;-80
2022/02/23 19:34:14;;;;;;;6.75;2.30;;;;;;;;;;10234136;29;20229;-79
2022/02/23 19:39:19;;;;;;;7.03;1.60;;;;;;;;;;10219497;29;21463;-77
2022/02/23 19:44:22;;;;;;;6.00;2.50;;;;;;;;;;10239994;29;20039;-80
2022/02/23 19:49:26;;;;;;;5.47;1.73;;;;;;;;;;10216951;29;20054;-79
2022/02/23 19:54:31;;;;;;;3.03;1.42;;;;;;;;;;10236361;29;20070;-79
2022/02/23 19:59:35;;;;;;;2.47;0.73;;;;;;;;;;10214881;29;20051;-80
2022/02/23 20:04:39;;;;;;;9.07;1.60;;;;;;;;;;10239769;29;20041;-80
2022/02/23 20:09:43;;;;;;;3.07;1.17;;;;;;;;;;10236826;29;20127;-82
2022/02/23 20:14:47;;;;;;;4.23;1.53;;;;;;;;;;10215417;29;20063;-77
2022/02/23 20:19:50;;;;;;;1.27;0.75;;;;;;;;;;10185376;29;20040;-75
2022/02/23 20:24:55;;;;;;;3.13;1.33;;;;;;;;;;10205474;29;20040;-75
2022/02/23 20:29:57;;;;;;;;;;;;;;;;;;10210731;29;20048;-75
2022/02/23 20:35:00;;;;;;;1.67;0.83;;;;;;;;;;10206210;29;19930;-75
2022/02/23 20:40:06;;;;;;;2.73;1.10;;;;;;;;;;10198908;29;20040;-77
2022/02/23 20:45:09;;;;;;;2.00;0.80;;;;;;;;;;10184335;29;20440;-79
2022/02/23 20:50:13;;;;;;;4.15;0.75;;;;;;;;;;10190718;29;20510;-77
2022/02/23 20:55:19;;;;;;;2.47;0.80;;;;;;;;;;10196798;29;20043;-77
2022/02/23 21:00:22;;;;;;;4.73;1.67;;;;;;;;;;10193476;29;20089;-76
2022/02/23 21:05:25;;;;;;;3.70;1.10;;;;;;;;;;10203951;29;20067;-76
2022/02/23 21:10:30;;;;;;;4.35;1.40;;;;;;;;;;10197539;29;20574;-77
2022/02/23 21:15:33;;;;;;;7.05;1.67;;;;;;;;;;10193297;29;20113;-76
2022/02/23 21:20:38;;;;;;;1.43;0.90;;;;;;;;;;10201032;29;20050;-77
2022/02/23 21:25:45;;;;;;;2.57;1.50;;;;;;;;;;10201222;29;20142;-76
2022/02/23 21:30:48;;;;;;;;;;;;;;;;;;10185144;29;20126;-75
2022/02/23 21:35:51;;;;;;;10.30;2.10;;;;;;;;;;10188714;29;19923;-77
2022/02/23 21:40:56;;;;;;;5.03;1.17;;;;;;;;;;10185024;29;20043;-76
2022/02/23 21:45:59;;;;;;;2.57;1.00;;;;;;;;;;10191211;29;20027;-75
2022/02/23 21:51:02;;;;;;;3.60;1.33;;;;;;;;;;10186435;29;20134;-75
2022/02/23 21:56:07;;;;;;;5.57;1.40;;;;;;;;;;10192323;29;20055;-77
2022/02/23 22:01:12;;;;;;;4.77;1.90;;;;;;;;;;10166663;29;20184;-75
2022/02/23 22:06:15;;;;;;;3.67;1.40;;;;;;;;;;10197747;29;20143;-76
2022/02/23 22:11:19;;;;;;;3.03;0.80;;;;;;;;;;10176671;29;20044;-75
2022/02/23 22:16:22;;;;;;;;;;;;;;;;;;10199085;29;20040;-74
2022/02/23 22:21:25;;;;;;;6.47;1.70;;;;;;;;;;10197470;29;19927;-74
2022/02/23 22:26:30;;;;;;;1.50;0.60;;;;;;;;;;10175059;29;20040;-76
2022/02/23 22:31:33;;;;;;;5.20;1.40;;;;;;;;;;10195980;29;20569;-75
2022/02/23 22:36:38;;;;;;;6.40;1.58;;;;;;;;;;10195045;29;20067;-76
2022/02/23 22:41:43;;;;;;;1.55;0.93;;;;;;;;;;10208635;29;20051;-73
2022/02/23 22:46:47;;;;;;;2.43;1.30;;;;;;;;;;10213423;29;20044;-73
2022/02/23 22:51:52;;;;;;;1.97;0.77;;;;;;;;;;10182273;29;20445;-75
2022/02/23 22:56:56;;;;;;;7.90;1.40;;;;;;;;;;10182355;29;20236;-75
2022/02/23 23:01:59;;;;;;;;;;;;;;;;;;10216688;29;20055;-76
2022/02/23 23:07:02;;;;;;;4.63;1.60;;;;;;;;;;10200426;29;20379;-75
2022/02/23 23:12:07;;;;;;;2.33;1.33;;;;;;;;;;10207534;29;20134;-76
2022/02/23 23:17:10;;;;;;;5.57;1.57;;;;;;;;;;10184356;29;20043;-76
2022/02/23 23:22:13;;;;;;;1.07;0.47;;;;;;;;;;10189353;29;20059;-76
2022/02/23 23:27:18;;;;;;;13.43;4.10;;;;;;;;;;10197099;29;20183;-75
2022/02/23 23:32:21;;;;;;;8.57;2.20;;;;;;;;;;10192481;29;20046;-75
2022/02/23 23:37:25;;;;;;;3.75;1.60;;;;;;;;;;10190438;29;20042;-76
2022/02/23 23:42:31;;;;;;;4.73;1.93;;;;;;;;;;10200330;29;20039;-76
2022/02/23 23:47:34;;;;;;;3.03;1.60;;;;;;;;;;10180622;29;20087;-77
2022/02/23 23:52:38;;;;;;;4.33;1.80;;;;;;;;;;10206576;29;20164;-76
2022/02/23 23:57:42;;;;;;;4.87;1.73;;;;;;;;;;10177880;29;20151;-76
